sensor_id;sensor_type;location;lat;lon;timestamp;temperature;humidity
4366;DHT22;2196;47.422;9.656;2023-02-19T00:02:14;8.20;99.90
4366;DHT22;2196;47.422;9.656;2023-02-19T00:04:41;8.20;99.90
4366;DHT22;2196;47.422;9.656;2023-02-19T00:07:08;8.20;99.90
4366;DHT22;2196;47.422;9.656;2023-02-19T00:09:35;8.30;99.90
4366;DHT22;2196;47.422;9.656;2023-02-19T00:12:02;8.20;99.90
4366;DHT22;2196;47.422;9.656;2023-02-19T00:14:30;8.20;99.90
4366;DHT22;2196;47.422;9.656;2023-02-19T00:16:57;8.20;99.90
4366;DHT22;2196;47.422;9.656;2023-02-19T00:19:24;8.30;99.90
4366;DHT22;2196;47.422;9.656;2023-02-19T00:21:51;8.20;99.90
4366;DHT22;2196;47.422;9.656;2023-02-19T00:24:19;8.20;99.90
4366;DHT22;2196;47.422;9.656;2023-02-19T00:26:46;8.20;99.90
4366;DHT22;2196;47.422;9.656;2023-02-19T00:29:15;8.20;99.90
4366;DHT22;2196;47.422;9.656;2023-02-19T00:31:44;8.10;99.90
4366;DHT22;2196;47.422;9.656;2023-02-19T00:34:12;8.20;99.90
4366;DHT22;2196;47.422;9.656;2023-02-19T00:36:40;8.20;99.90
4366;DHT22;2196;47.422;9.656;2023-02-19T00:39:09;8.30;99.90
4366;DHT22;2196;47.422;9.656;2023-02-19T00:41:37;8.30;99.90
4366;DHT22;2196;47.422;9.656;2023-02-19T00:44:05;8.30;99.90
4366;DHT22;2196;47.422;9.656;2023-02-19T00:46:34;8.30;99.90
4366;DHT22;2196;47.422;9.656;2023-02-19T00:49:04;8.40;99.90
4366;DHT22;2196;47.422;9.656;2023-02-19T00:51:33;8.40;99.90
4366;DHT22;2196;47.422;9.656;2023-02-19T00:54:01;8.50;99.90
4366;DHT22;2196;47.422;9.656;2023-02-19T00:56:28;8.50;99.90
4366;DHT22;2196;47.422;9.656;2023-02-19T00:58:55;8.40;99.90
4366;DHT22;2196;47.422;9.656;2023-02-19T01:01:22;8.40;99.90
4366;DHT22;2196;47.422;9.656;2023-02-19T01:03:49;8.50;99.90
4366;DHT22;2196;47.422;9.656;2023-02-19T01:06:19;8.40;99.90
4366;DHT22;2196;47.422;9.656;2023-02-19T01:08:46;8.50;99.90
4366;DHT22;2196;47.422;9.656;2023-02-19T01:11:14;8.60;99.90
4366;DHT22;2196;47.422;9.656;2023-02-19T01:13:42;8.60;99.90
4366;DHT22;2196;47.422;9.656;2023-02-19T01:16:12;8.60;99.90
4366;DHT22;2196;47.422;9.656;2023-02-19T01:18:39;8.60;99.90
4366;DHT22;2196;47.422;9.656;2023-02-19T01:21:08;8.60;99.90
4366;DHT22;2196;47.422;9.656;2023-02-19T01:23:37;8.50;99.90
4366;DHT22;2196;47.422;9.656;2023-02-19T01:26:05;8.50;99.90
4366;DHT22;2196;47.422;9.656;2023-02-19T01:28:32;8.40;99.90
4366;DHT22;2196;47.422;9.656;2023-02-19T01:31:01;8.40;99.90
4366;DHT22;2196;47.422;9.656;2023-02-19T01:33:28;8.30;99.90
4366;DHT22;2196;47.422;9.656;2023-02-19T01:35:55;8.20;99.90
4366;DHT22;2196;47.422;9.656;2023-02-19T01:38:22;8.20;99.90
4366;DHT22;2196;47.422;9.656;2023-02-19T01:40:55;8.10;99.90
4366;DHT22;2196;47.422;9.656;2023-02-19T01:43:22;8.10;99.90
4366;DHT22;2196;47.422;9.656;2023-02-19T01:45:49;8.10;99.90
4366;DHT22;2196;47.422;9.656;2023-02-19T01:48:19;8.00;99.90
4366;DHT22;2196;47.422;9.656;2023-02-19T01:50:50;8.00;99.90
4366;DHT22;2196;47.422;9.656;2023-02-19T01:53:20;7.90;99.90
4366;DHT22;2196;47.422;9.656;2023-02-19T01:55:51;7.90;99.90
4366;DHT22;2196;47.422;9.656;2023-02-19T01:58:21;7.80;99.90
4366;DHT22;2196;47.422;9.656;2023-02-19T02:00:48;7.70;99.90
4366;DHT22;2196;47.422;9.656;2023-02-19T02:03:16;7.60;99.90
4366;DHT22;2196;47.422;9.656;2023-02-19T02:05:49;7.60;99.90
4366;DHT22;2196;47.422;9.656;2023-02-19T02:08:17;7.60;99.90
4366;DHT22;2196;47.422;9.656;2023-02-19T02:11:02;7.70;99.90
4366;DHT22;2196;47.422;9.656;2023-02-19T02:13:32;7.60;99.90
4366;DHT22;2196;47.422;9.656;2023-02-19T02:16:07;7.50;99.90
4366;DHT22;2196;47.422;9.656;2023-02-19T02:18:45;7.50;99.90
4366;DHT22;2196;47.422;9.656;2023-02-19T02:21:42;7.40;99.90
4366;DHT22;2196;47.422;9.656;2023-02-19T02:27:22;7.40;99.90
4366;DHT22;2196;47.422;9.656;2023-02-19T02:30:11;7.40;99.90
4366;DHT22;2196;47.422;9.656;2023-02-19T02:32:47;7.40;99.90
4366;DHT22;2196;47.422;9.656;2023-02-19T02:35:20;7.30;99.90
4366;DHT22;2196;47.422;9.656;2023-02-19T02:37:48;7.20;99.90
4366;DHT22;2196;47.422;9.656;2023-02-19T02:40:17;7.10;99.90
4366;DHT22;2196;47.422;9.656;2023-02-19T02:42:44;7.00;99.90
4366;DHT22;2196;47.422;9.656;2023-02-19T02:45:29;6.90;99.90
4366;DHT22;2196;47.422;9.656;2023-02-19T02:48:08;6.80;99.90
4366;DHT22;2196;47.422;9.656;2023-02-19T02:50:41;6.70;99.90
4366;DHT22;2196;47.422;9.656;2023-02-19T02:53:12;6.60;99.90
4366;DHT22;2196;47.422;9.656;2023-02-19T02:55:58;6.60;99.90
4366;DHT22;2196;47.422;9.656;2023-02-19T02:58:27;6.50;99.90
4366;DHT22;2196;47.422;9.656;2023-02-19T03:00:59;6.40;99.90
4366;DHT22;2196;47.422;9.656;2023-02-19T03:03:46;6.40;99.90
4366;DHT22;2196;47.422;9.656;2023-02-19T03:06:16;6.40;99.90
4366;DHT22;2196;47.422;9.656;2023-02-19T03:08:48;6.40;99.90
4366;DHT22;2196;47.422;9.656;2023-02-19T03:11:17;6.40;99.90
4366;DHT22;2196;47.422;9.656;2023-02-19T03:14:05;6.30;99.90
4366;DHT22;2196;47.422;9.656;2023-02-19T03:16:57;6.30;99.90
4366;DHT22;2196;47.422;9.656;2023-02-19T03:19:48;6.30;99.90
4366;DHT22;2196;47.422;9.656;2023-02-19T03:22:19;6.30;99.90
4366;DHT22;2196;47.422;9.656;2023-02-19T03:24:50;6.30;99.90
4366;DHT22;2196;47.422;9.656;2023-02-19T03:27:38;6.40;99.90
4366;DHT22;2196;47.422;9.656;2023-02-19T03:30:10;6.50;99.90
4366;DHT22;2196;47.422;9.656;2023-02-19T03:32:44;6.70;99.90
4366;DHT22;2196;47.422;9.656;2023-02-19T03:35:15;6.80;99.90
4366;DHT22;2196;47.422;9.656;2023-02-19T03:37:45;6.90;99.90
4366;DHT22;2196;47.422;9.656;2023-02-19T03:40:14;6.90;99.90
4366;DHT22;2196;47.422;9.656;2023-02-19T03:42:45;6.90;99.90
4366;DHT22;2196;47.422;9.656;2023-02-19T03:45:25;6.90;99.90
4366;DHT22;2196;47.422;9.656;2023-02-19T03:48:03;6.90;99.90
4366;DHT22;2196;47.422;9.656;2023-02-19T03:50:38;6.90;99.90
4366;DHT22;2196;47.422;9.656;2023-02-19T03:53:11;6.90;99.90
4366;DHT22;2196;47.422;9.656;2023-02-19T03:55:44;7.00;99.90
4366;DHT22;2196;47.422;9.656;2023-02-19T03:58:20;7.00;99.90
4366;DHT22;2196;47.422;9.656;2023-02-19T04:00:52;7.00;99.90
4366;DHT22;2196;47.422;9.656;2023-02-19T04:03:27;6.90;99.90
4366;DHT22;2196;47.422;9.656;2023-02-19T04:05:59;6.80;99.90
4366;DHT22;2196;47.422;9.656;2023-02-19T04:08:27;6.70;99.90
4366;DHT22;2196;47.422;9.656;2023-02-19T04:10:55;6.80;99.90
4366;DHT22;2196;47.422;9.656;2023-02-19T04:13:28;6.80;99.90
4366;DHT22;2196;47.422;9.656;2023-02-19T04:15:59;6.80;99.90
4366;DHT22;2196;47.422;9.656;2023-02-19T04:18:31;6.70;99.90
4366;DHT22;2196;47.422;9.656;2023-02-19T04:21:00;6.80;99.90
4366;DHT22;2196;47.422;9.656;2023-02-19T04:23:30;6.80;99.90
4366;DHT22;2196;47.422;9.656;2023-02-19T04:26:00;6.80;99.90
4366;DHT22;2196;47.422;9.656;2023-02-19T04:28:29;6.80;99.90
4366;DHT22;2196;47.422;9.656;2023-02-19T04:30:56;6.80;99.90
4366;DHT22;2196;47.422;9.656;2023-02-19T04:33:22;6.80;99.90
4366;DHT22;2196;47.422;9.656;2023-02-19T04:35:51;6.90;99.90
4366;DHT22;2196;47.422;9.656;2023-02-19T04:38:18;6.80;99.90
4366;DHT22;2196;47.422;9.656;2023-02-19T04:40:45;6.80;99.90
4366;DHT22;2196;47.422;9.656;2023-02-19T04:43:13;6.80;99.90
4366;DHT22;2196;47.422;9.656;2023-02-19T04:45:40;6.80;99.90
4366;DHT22;2196;47.422;9.656;2023-02-19T04:48:07;6.80;99.90
4366;DHT22;2196;47.422;9.656;2023-02-19T04:50:36;6.80;99.90
4366;DHT22;2196;47.422;9.656;2023-02-19T04:53:05;6.80;99.90
4366;DHT22;2196;47.422;9.656;2023-02-19T04:55:35;6.80;99.90
4366;DHT22;2196;47.422;9.656;2023-02-19T04:58:02;6.80;99.90
4366;DHT22;2196;47.422;9.656;2023-02-19T05:00:30;6.80;99.90
4366;DHT22;2196;47.422;9.656;2023-02-19T05:02:58;6.80;99.90
4366;DHT22;2196;47.422;9.656;2023-02-19T05:05:25;6.80;99.90
4366;DHT22;2196;47.422;9.656;2023-02-19T05:07:52;6.80;99.90
4366;DHT22;2196;47.422;9.656;2023-02-19T05:10:21;6.80;99.90
4366;DHT22;2196;47.422;9.656;2023-02-19T05:12:48;6.80;99.90
4366;DHT22;2196;47.422;9.656;2023-02-19T05:15:15;6.80;99.90
4366;DHT22;2196;47.422;9.656;2023-02-19T05:17:42;6.80;99.90
4366;DHT22;2196;47.422;9.656;2023-02-19T05:20:09;6.90;99.90
4366;DHT22;2196;47.422;9.656;2023-02-19T05:22:37;6.90;99.90
4366;DHT22;2196;47.422;9.656;2023-02-19T05:25:04;6.90;99.90
4366;DHT22;2196;47.422;9.656;2023-02-19T05:27:36;6.90;99.90
4366;DHT22;2196;47.422;9.656;2023-02-19T05:30:03;6.90;99.90
4366;DHT22;2196;47.422;9.656;2023-02-19T05:32:30;6.80;99.90
4366;DHT22;2196;47.422;9.656;2023-02-19T05:34:57;6.80;99.90
4366;DHT22;2196;47.422;9.656;2023-02-19T05:37:24;6.80;99.90
4366;DHT22;2196;47.422;9.656;2023-02-19T05:39:51;6.80;99.90
4366;DHT22;2196;47.422;9.656;2023-02-19T05:42:18;6.70;99.90
4366;DHT22;2196;47.422;9.656;2023-02-19T05:44:51;6.90;99.90
4366;DHT22;2196;47.422;9.656;2023-02-19T05:47:18;6.90;99.90
4366;DHT22;2196;47.422;9.656;2023-02-19T05:49:45;6.90;99.90
4366;DHT22;2196;47.422;9.656;2023-02-19T05:52:12;6.90;99.90
4366;DHT22;2196;47.422;9.656;2023-02-19T05:54:39;7.00;99.90
4366;DHT22;2196;47.422;9.656;2023-02-19T05:57:06;7.00;99.90
4366;DHT22;2196;47.422;9.656;2023-02-19T05:59:33;6.90;99.90
4366;DHT22;2196;47.422;9.656;2023-02-19T06:02:01;6.90;99.90
4366;DHT22;2196;47.422;9.656;2023-02-19T06:04:28;6.80;99.90
4366;DHT22;2196;47.422;9.656;2023-02-19T06:06:55;6.90;99.90
4366;DHT22;2196;47.422;9.656;2023-02-19T06:09:22;6.80;99.90
4366;DHT22;2196;47.422;9.656;2023-02-19T06:11:49;6.80;99.90
4366;DHT22;2196;47.422;9.656;2023-02-19T06:14:16;6.80;99.90
4366;DHT22;2196;47.422;9.656;2023-02-19T06:16:43;6.70;99.90
4366;DHT22;2196;47.422;9.656;2023-02-19T06:19:11;6.70;99.90
4366;DHT22;2196;47.422;9.656;2023-02-19T06:21:38;6.70;99.90
4366;DHT22;2196;47.422;9.656;2023-02-19T06:24:07;6.70;99.90
4366;DHT22;2196;47.422;9.656;2023-02-19T06:26:34;6.80;99.90
4366;DHT22;2196;47.422;9.656;2023-02-19T06:29:01;6.70;99.90
4366;DHT22;2196;47.422;9.656;2023-02-19T06:31:28;6.90;99.90
4366;DHT22;2196;47.422;9.656;2023-02-19T06:33:55;6.60;99.90
4366;DHT22;2196;47.422;9.656;2023-02-19T06:36:23;6.60;99.90
4366;DHT22;2196;47.422;9.656;2023-02-19T06:38:51;6.60;99.90
4366;DHT22;2196;47.422;9.656;2023-02-19T06:41:18;6.60;99.90
4366;DHT22;2196;47.422;9.656;2023-02-19T06:43:45;6.70;99.90
4366;DHT22;2196;47.422;9.656;2023-02-19T06:46:12;6.70;99.90
4366;DHT22;2196;47.422;9.656;2023-02-19T06:48:40;6.80;99.90
4366;DHT22;2196;47.422;9.656;2023-02-19T06:51:10;6.80;99.90
4366;DHT22;2196;47.422;9.656;2023-02-19T06:53:38;6.80;99.90
4366;DHT22;2196;47.422;9.656;2023-02-19T06:56:07;6.90;99.90
4366;DHT22;2196;47.422;9.656;2023-02-19T06:58:47;6.80;99.90
4366;DHT22;2196;47.422;9.656;2023-02-19T07:01:13;6.90;99.90
4366;DHT22;2196;47.422;9.656;2023-02-19T07:03:41;6.80;99.90
4366;DHT22;2196;47.422;9.656;2023-02-19T07:06:08;6.80;99.90
4366;DHT22;2196;47.422;9.656;2023-02-19T07:08:35;6.80;99.90
4366;DHT22;2196;47.422;9.656;2023-02-19T07:11:04;6.70;99.90
4366;DHT22;2196;47.422;9.656;2023-02-19T07:13:31;6.70;99.90
4366;DHT22;2196;47.422;9.656;2023-02-19T07:15:59;6.70;99.90
4366;DHT22;2196;47.422;9.656;2023-02-19T07:18:27;6.70;99.90
4366;DHT22;2196;47.422;9.656;2023-02-19T07:20:56;6.80;99.90
4366;DHT22;2196;47.422;9.656;2023-02-19T07:23:27;6.70;99.90
4366;DHT22;2196;47.422;9.656;2023-02-19T07:25:54;6.70;99.90
4366;DHT22;2196;47.422;9.656;2023-02-19T07:28:22;6.70;99.90
4366;DHT22;2196;47.422;9.656;2023-02-19T07:30:49;6.80;99.90
4366;DHT22;2196;47.422;9.656;2023-02-19T07:33:16;6.80;99.90
4366;DHT22;2196;47.422;9.656;2023-02-19T07:35:45;6.80;99.90
4366;DHT22;2196;47.422;9.656;2023-02-19T07:38:14;6.90;99.90
4366;DHT22;2196;47.422;9.656;2023-02-19T07:40:41;6.90;99.90
4366;DHT22;2196;47.422;9.656;2023-02-19T07:43:08;6.90;99.90
4366;DHT22;2196;47.422;9.656;2023-02-19T07:45:36;6.90;99.90
4366;DHT22;2196;47.422;9.656;2023-02-19T07:48:03;6.90;99.90
4366;DHT22;2196;47.422;9.656;2023-02-19T07:50:30;6.90;99.90
4366;DHT22;2196;47.422;9.656;2023-02-19T07:52:57;7.00;99.90
4366;DHT22;2196;47.422;9.656;2023-02-19T07:55:24;7.00;99.90
4366;DHT22;2196;47.422;9.656;2023-02-19T07:57:51;7.10;99.90
4366;DHT22;2196;47.422;9.656;2023-02-19T08:00:18;7.10;99.90
4366;DHT22;2196;47.422;9.656;2023-02-19T08:02:47;7.20;99.90
4366;DHT22;2196;47.422;9.656;2023-02-19T08:05:25;7.20;99.90
4366;DHT22;2196;47.422;9.656;2023-02-19T08:07:52;7.10;99.90
4366;DHT22;2196;47.422;9.656;2023-02-19T08:10:19;7.20;99.90
4366;DHT22;2196;47.422;9.656;2023-02-19T08:13:04;7.20;99.90
4366;DHT22;2196;47.422;9.656;2023-02-19T08:15:48;7.20;99.90
4366;DHT22;2196;47.422;9.656;2023-02-19T08:18:19;7.10;99.90
4366;DHT22;2196;47.422;9.656;2023-02-19T08:20:46;7.10;99.90
4366;DHT22;2196;47.422;9.656;2023-02-19T08:23:13;7.20;99.90
4366;DHT22;2196;47.422;9.656;2023-02-19T08:25:41;7.20;99.90
4366;DHT22;2196;47.422;9.656;2023-02-19T08:28:10;7.20;99.90
4366;DHT22;2196;47.422;9.656;2023-02-19T08:30:37;7.20;99.90
4366;DHT22;2196;47.422;9.656;2023-02-19T08:33:05;7.20;99.90
4366;DHT22;2196;47.422;9.656;2023-02-19T08:35:35;7.20;99.90
4366;DHT22;2196;47.422;9.656;2023-02-19T08:38:03;7.30;99.90
4366;DHT22;2196;47.422;9.656;2023-02-19T08:40:31;7.30;99.90
4366;DHT22;2196;47.422;9.656;2023-02-19T08:43:01;7.30;99.90
4366;DHT22;2196;47.422;9.656;2023-02-19T08:45:29;7.40;99.90
4366;DHT22;2196;47.422;9.656;2023-02-19T08:47:56;7.50;99.90
4366;DHT22;2196;47.422;9.656;2023-02-19T08:50:23;7.60;99.90
4366;DHT22;2196;47.422;9.656;2023-02-19T08:52:52;7.60;99.90
4366;DHT22;2196;47.422;9.656;2023-02-19T08:55:19;7.60;99.90
4366;DHT22;2196;47.422;9.656;2023-02-19T08:57:47;7.60;99.90
4366;DHT22;2196;47.422;9.656;2023-02-19T09:00:14;7.70;99.90
4366;DHT22;2196;47.422;9.656;2023-02-19T09:02:42;7.90;99.90
4366;DHT22;2196;47.422;9.656;2023-02-19T09:05:10;7.90;99.90
4366;DHT22;2196;47.422;9.656;2023-02-19T09:07:38;8.00;99.90
4366;DHT22;2196;47.422;9.656;2023-02-19T09:10:08;8.10;99.90
4366;DHT22;2196;47.422;9.656;2023-02-19T09:12:38;8.10;99.90
4366;DHT22;2196;47.422;9.656;2023-02-19T09:15:06;8.10;99.90
4366;DHT22;2196;47.422;9.656;2023-02-19T09:17:33;8.30;99.90
4366;DHT22;2196;47.422;9.656;2023-02-19T09:20:00;8.30;99.90
4366;DHT22;2196;47.422;9.656;2023-02-19T09:22:27;8.50;99.90
4366;DHT22;2196;47.422;9.656;2023-02-19T09:24:54;8.60;99.90
4366;DHT22;2196;47.422;9.656;2023-02-19T09:27:22;8.70;99.90
4366;DHT22;2196;47.422;9.656;2023-02-19T09:29:49;8.70;99.90
4366;DHT22;2196;47.422;9.656;2023-02-19T09:32:16;8.70;99.90
4366;DHT22;2196;47.422;9.656;2023-02-19T09:34:43;8.80;99.90
4366;DHT22;2196;47.422;9.656;2023-02-19T09:37:10;8.80;99.90
4366;DHT22;2196;47.422;9.656;2023-02-19T09:39:37;8.80;99.90
4366;DHT22;2196;47.422;9.656;2023-02-19T09:42:12;8.90;99.90
4366;DHT22;2196;47.422;9.656;2023-02-19T09:44:43;9.00;99.90
4366;DHT22;2196;47.422;9.656;2023-02-19T09:47:15;9.00;99.90
4366;DHT22;2196;47.422;9.656;2023-02-19T09:49:45;9.10;99.90
4366;DHT22;2196;47.422;9.656;2023-02-19T09:52:22;9.10;99.90
4366;DHT22;2196;47.422;9.656;2023-02-19T09:54:50;9.10;99.90
4366;DHT22;2196;47.422;9.656;2023-02-19T09:57:23;9.10;99.90
4366;DHT22;2196;47.422;9.656;2023-02-19T09:59:55;9.10;99.90
4366;DHT22;2196;47.422;9.656;2023-02-19T10:02:25;9.10;99.90
4366;DHT22;2196;47.422;9.656;2023-02-19T10:04:56;9.20;99.90
4366;DHT22;2196;47.422;9.656;2023-02-19T10:07:25;9.30;99.90
4366;DHT22;2196;47.422;9.656;2023-02-19T10:09:57;9.40;99.90
4366;DHT22;2196;47.422;9.656;2023-02-19T10:12:27;9.40;99.90
4366;DHT22;2196;47.422;9.656;2023-02-19T10:15:00;9.40;99.90
4366;DHT22;2196;47.422;9.656;2023-02-19T10:17:29;9.40;99.90
4366;DHT22;2196;47.422;9.656;2023-02-19T10:19:59;9.30;99.90
4366;DHT22;2196;47.422;9.656;2023-02-19T10:22:29;9.40;99.90
4366;DHT22;2196;47.422;9.656;2023-02-19T10:24:57;9.50;99.90
4366;DHT22;2196;47.422;9.656;2023-02-19T10:27:26;9.50;99.90
4366;DHT22;2196;47.422;9.656;2023-02-19T10:29:57;9.60;99.90
4366;DHT22;2196;47.422;9.656;2023-02-19T10:32:25;9.70;99.90
4366;DHT22;2196;47.422;9.656;2023-02-19T10:35:10;9.80;99.90
4366;DHT22;2196;47.422;9.656;2023-02-19T10:37:42;9.90;99.90
4366;DHT22;2196;47.422;9.656;2023-02-19T10:40:17;10.00;99.90
4366;DHT22;2196;47.422;9.656;2023-02-19T10:42:46;10.10;99.90
4366;DHT22;2196;47.422;9.656;2023-02-19T10:45:18;10.10;99.90
4366;DHT22;2196;47.422;9.656;2023-02-19T10:47:48;10.20;99.90
4366;DHT22;2196;47.422;9.656;2023-02-19T10:50:22;10.20;99.90
4366;DHT22;2196;47.422;9.656;2023-02-19T10:52:52;10.20;99.90
4366;DHT22;2196;47.422;9.656;2023-02-19T10:55:26;10.30;99.90
4366;DHT22;2196;47.422;9.656;2023-02-19T10:57:54;10.50;99.90
4366;DHT22;2196;47.422;9.656;2023-02-19T11:00:24;10.70;99.90
4366;DHT22;2196;47.422;9.656;2023-02-19T11:03:17;10.70;99.90
4366;DHT22;2196;47.422;9.656;2023-02-19T11:05:59;10.70;99.90
4366;DHT22;2196;47.422;9.656;2023-02-19T11:08:27;10.70;99.90
4366;DHT22;2196;47.422;9.656;2023-02-19T11:10:55;10.80;99.90
4366;DHT22;2196;47.422;9.656;2023-02-19T11:13:26;10.80;99.90
4366;DHT22;2196;47.422;9.656;2023-02-19T11:15:58;10.90;99.90
4366;DHT22;2196;47.422;9.656;2023-02-19T11:18:27;10.90;99.90
4366;DHT22;2196;47.422;9.656;2023-02-19T11:20:56;10.90;99.90
4366;DHT22;2196;47.422;9.656;2023-02-19T11:23:26;11.00;99.90
4366;DHT22;2196;47.422;9.656;2023-02-19T11:25:55;11.10;99.90
4366;DHT22;2196;47.422;9.656;2023-02-19T11:28:30;11.10;99.90
4366;DHT22;2196;47.422;9.656;2023-02-19T11:31:22;11.00;99.90
4366;DHT22;2196;47.422;9.656;2023-02-19T11:33:55;11.00;99.90
4366;DHT22;2196;47.422;9.656;2023-02-19T11:36:28;11.10;99.90
4366;DHT22;2196;47.422;9.656;2023-02-19T11:38:56;11.10;99.90
4366;DHT22;2196;47.422;9.656;2023-02-19T11:41:40;11.20;99.90
4366;DHT22;2196;47.422;9.656;2023-02-19T11:44:21;11.20;99.90
4366;DHT22;2196;47.422;9.656;2023-02-19T11:47:03;11.20;99.90
4366;DHT22;2196;47.422;9.656;2023-02-19T11:49:41;11.10;99.90
4366;DHT22;2196;47.422;9.656;2023-02-19T11:52:22;11.10;99.90
4366;DHT22;2196;47.422;9.656;2023-02-19T11:54:58;11.10;99.90
4366;DHT22;2196;47.422;9.656;2023-02-19T11:57:40;11.10;99.90
4366;DHT22;2196;47.422;9.656;2023-02-19T12:00:24;11.20;99.90
4366;DHT22;2196;47.422;9.656;2023-02-19T12:03:16;11.20;99.90
4366;DHT22;2196;47.422;9.656;2023-02-19T12:05:59;11.40;99.90
4366;DHT22;2196;47.422;9.656;2023-02-19T12:08:45;11.40;99.90
4366;DHT22;2196;47.422;9.656;2023-02-19T12:11:31;11.40;99.90
4366;DHT22;2196;47.422;9.656;2023-02-19T12:14:23;11.40;99.90
4366;DHT22;2196;47.422;9.656;2023-02-19T12:16:58;11.50;99.90
4366;DHT22;2196;47.422;9.656;2023-02-19T12:19:40;11.50;99.90
4366;DHT22;2196;47.422;9.656;2023-02-19T12:22:26;11.50;99.90
4366;DHT22;2196;47.422;9.656;2023-02-19T12:28:12;11.50;99.90
4366;DHT22;2196;47.422;9.656;2023-02-19T12:37:06;11.50;99.90
4366;DHT22;2196;47.422;9.656;2023-02-19T12:39:43;11.50;99.90
4366;DHT22;2196;47.422;9.656;2023-02-19T12:42:22;11.50;99.90
4366;DHT22;2196;47.422;9.656;2023-02-19T12:44:54;11.50;99.90
4366;DHT22;2196;47.422;9.656;2023-02-19T12:47:25;11.40;99.90
4366;DHT22;2196;47.422;9.656;2023-02-19T12:50:06;11.30;99.90
4366;DHT22;2196;47.422;9.656;2023-02-19T12:52:41;11.30;99.90
4366;DHT22;2196;47.422;9.656;2023-02-19T12:55:18;11.30;99.90
4366;DHT22;2196;47.422;9.656;2023-02-19T12:57:46;11.20;99.90
4366;DHT22;2196;47.422;9.656;2023-02-19T13:00:25;11.20;99.90
4366;DHT22;2196;47.422;9.656;2023-02-19T13:02:58;11.20;99.90
4366;DHT22;2196;47.422;9.656;2023-02-19T13:05:36;11.10;99.90
4366;DHT22;2196;47.422;9.656;2023-02-19T13:08:09;11.00;99.90
4366;DHT22;2196;47.422;9.656;2023-02-19T13:10:42;10.90;99.90
4366;DHT22;2196;47.422;9.656;2023-02-19T13:13:14;10.90;99.90
4366;DHT22;2196;47.422;9.656;2023-02-19T13:15:46;10.90;99.90
4366;DHT22;2196;47.422;9.656;2023-02-19T13:18:18;10.80;99.90
4366;DHT22;2196;47.422;9.656;2023-02-19T13:20:47;10.80;99.90
4366;DHT22;2196;47.422;9.656;2023-02-19T13:23:20;10.70;99.90
4366;DHT22;2196;47.422;9.656;2023-02-19T13:29:11;10.80;99.90
4366;DHT22;2196;47.422;9.656;2023-02-19T13:32:01;10.90;99.90
4366;DHT22;2196;47.422;9.656;2023-02-19T13:34:41;11.00;99.90
4366;DHT22;2196;47.422;9.656;2023-02-19T13:37:12;11.10;99.90
4366;DHT22;2196;47.422;9.656;2023-02-19T13:39:47;11.10;99.90
4366;DHT22;2196;47.422;9.656;2023-02-19T13:42:24;11.20;99.90
4366;DHT22;2196;47.422;9.656;2023-02-19T13:44:51;11.20;99.90
4366;DHT22;2196;47.422;9.656;2023-02-19T13:47:45;11.20;99.90
4366;DHT22;2196;47.422;9.656;2023-02-19T13:50:20;11.30;99.90
4366;DHT22;2196;47.422;9.656;2023-02-19T13:52:47;11.30;99.90
4366;DHT22;2196;47.422;9.656;2023-02-19T13:55:50;11.40;99.90
4366;DHT22;2196;47.422;9.656;2023-02-19T14:04:50;11.40;99.90
4366;DHT22;2196;47.422;9.656;2023-02-19T14:14:01;11.50;99.90
4366;DHT22;2196;47.422;9.656;2023-02-19T14:17:02;11.50;99.90
4366;DHT22;2196;47.422;9.656;2023-02-19T14:19:51;11.50;99.90
4366;DHT22;2196;47.422;9.656;2023-02-19T14:25:34;11.60;99.90
4366;DHT22;2196;47.422;9.656;2023-02-19T14:28:05;11.60;99.90
4366;DHT22;2196;47.422;9.656;2023-02-19T14:30:46;11.60;99.90
4366;DHT22;2196;47.422;9.656;2023-02-19T14:33:15;11.60;99.90
4366;DHT22;2196;47.422;9.656;2023-02-19T14:35:45;11.50;99.90
4366;DHT22;2196;47.422;9.656;2023-02-19T14:38:17;11.40;99.90
4366;DHT22;2196;47.422;9.656;2023-02-19T14:40:46;11.20;99.90
4366;DHT22;2196;47.422;9.656;2023-02-19T14:43:16;11.10;99.90
4366;DHT22;2196;47.422;9.656;2023-02-19T14:45:47;11.10;99.90
4366;DHT22;2196;47.422;9.656;2023-02-19T14:48:19;11.10;99.90
4366;DHT22;2196;47.422;9.656;2023-02-19T14:50:49;11.10;99.90
4366;DHT22;2196;47.422;9.656;2023-02-19T14:53:19;11.10;99.90
4366;DHT22;2196;47.422;9.656;2023-02-19T14:55:49;11.20;99.90
4366;DHT22;2196;47.422;9.656;2023-02-19T14:58:21;11.20;99.90
4366;DHT22;2196;47.422;9.656;2023-02-19T15:00:51;11.20;99.90
4366;DHT22;2196;47.422;9.656;2023-02-19T15:03:27;11.20;99.90
4366;DHT22;2196;47.422;9.656;2023-02-19T15:05:57;11.10;99.90
4366;DHT22;2196;47.422;9.656;2023-02-19T15:08:31;11.10;99.90
4366;DHT22;2196;47.422;9.656;2023-02-19T15:11:00;11.10;99.90
4366;DHT22;2196;47.422;9.656;2023-02-19T15:13:32;11.20;99.90
4366;DHT22;2196;47.422;9.656;2023-02-19T15:16:00;11.20;99.90
4366;DHT22;2196;47.422;9.656;2023-02-19T15:18:28;11.20;99.90
4366;DHT22;2196;47.422;9.656;2023-02-19T15:21:02;11.20;99.90
4366;DHT22;2196;47.422;9.656;2023-02-19T15:23:30;11.10;99.90
4366;DHT22;2196;47.422;9.656;2023-02-19T15:25:58;11.10;99.90
4366;DHT22;2196;47.422;9.656;2023-02-19T15:28:32;11.10;99.90
4366;DHT22;2196;47.422;9.656;2023-02-19T15:31:12;11.10;99.90
4366;DHT22;2196;47.422;9.656;2023-02-19T15:33:47;11.10;99.90
4366;DHT22;2196;47.422;9.656;2023-02-19T15:36:19;11.00;99.90
4366;DHT22;2196;47.422;9.656;2023-02-19T15:38:53;11.10;99.90
4366;DHT22;2196;47.422;9.656;2023-02-19T15:41:21;11.00;99.90
4366;DHT22;2196;47.422;9.656;2023-02-19T15:43:51;11.10;99.90
4366;DHT22;2196;47.422;9.656;2023-02-19T15:46:23;11.00;99.90
4366;DHT22;2196;47.422;9.656;2023-02-19T15:48:56;10.90;99.90
4366;DHT22;2196;47.422;9.656;2023-02-19T15:51:30;10.80;99.90
4366;DHT22;2196;47.422;9.656;2023-02-19T15:54:05;10.80;99.90
4366;DHT22;2196;47.422;9.656;2023-02-19T15:56:35;10.70;99.90
4366;DHT22;2196;47.422;9.656;2023-02-19T15:59:05;10.60;99.90
4366;DHT22;2196;47.422;9.656;2023-02-19T16:01:35;10.50;99.90
4366;DHT22;2196;47.422;9.656;2023-02-19T16:04:05;10.60;99.90
4366;DHT22;2196;47.422;9.656;2023-02-19T16:06:51;10.60;99.90
4366;DHT22;2196;47.422;9.656;2023-02-19T16:09:20;10.50;99.90
4366;DHT22;2196;47.422;9.656;2023-02-19T16:11:50;10.50;99.90
4366;DHT22;2196;47.422;9.656;2023-02-19T16:14:28;10.40;99.90
4366;DHT22;2196;47.422;9.656;2023-02-19T16:16:59;10.30;99.90
4366;DHT22;2196;47.422;9.656;2023-02-19T16:19:43;10.30;99.90
4366;DHT22;2196;47.422;9.656;2023-02-19T16:22:12;10.30;99.90
4366;DHT22;2196;47.422;9.656;2023-02-19T16:24:43;10.30;99.90
4366;DHT22;2196;47.422;9.656;2023-02-19T16:27:11;10.30;99.90
4366;DHT22;2196;47.422;9.656;2023-02-19T16:29:39;10.30;99.90
4366;DHT22;2196;47.422;9.656;2023-02-19T16:32:15;10.20;99.90
4366;DHT22;2196;47.422;9.656;2023-02-19T16:34:43;10.20;99.90
4366;DHT22;2196;47.422;9.656;2023-02-19T16:37:31;10.20;99.90
4366;DHT22;2196;47.422;9.656;2023-02-19T16:43:39;10.10;99.90
4366;DHT22;2196;47.422;9.656;2023-02-19T16:46:08;10.00;99.90
4366;DHT22;2196;47.422;9.656;2023-02-19T16:48:38;10.00;99.90
4366;DHT22;2196;47.422;9.656;2023-02-19T16:51:06;10.00;99.90
4366;DHT22;2196;47.422;9.656;2023-02-19T16:53:33;10.00;99.90
4366;DHT22;2196;47.422;9.656;2023-02-19T16:56:01;10.00;99.90
4366;DHT22;2196;47.422;9.656;2023-02-19T16:58:28;10.00;99.90
4366;DHT22;2196;47.422;9.656;2023-02-19T17:00:55;10.00;99.90
4366;DHT22;2196;47.422;9.656;2023-02-19T17:03:23;9.90;99.90
4366;DHT22;2196;47.422;9.656;2023-02-19T17:05:52;9.90;99.90
4366;DHT22;2196;47.422;9.656;2023-02-19T17:08:29;9.90;99.90
4366;DHT22;2196;47.422;9.656;2023-02-19T17:10:59;9.90;99.90
4366;DHT22;2196;47.422;9.656;2023-02-19T17:13:26;9.90;99.90
4366;DHT22;2196;47.422;9.656;2023-02-19T17:15:53;9.90;99.90